sensor_id;sensor_type;location;lat;lon;timestamp;temperature;humidity
53422;DHT22;39319;52.944;5.928;2022-12-10T00:01:30;1.10;99.90
53422;DHT22;39319;52.944;5.928;2022-12-10T00:03:57;1.20;99.90
53422;DHT22;39319;52.944;5.928;2022-12-10T00:06:25;1.00;99.90
53422;DHT22;39319;52.944;5.928;2022-12-10T00:08:51;1.10;99.90
53422;DHT22;39319;52.944;5.928;2022-12-10T00:11:19;1.10;99.90
53422;DHT22;39319;52.944;5.928;2022-12-10T00:13:46;1.10;99.90
53422;DHT22;39319;52.944;5.928;2022-12-10T00:16:14;1.20;99.90
53422;DHT22;39319;52.944;5.928;2022-12-10T00:18:41;1.30;99.90
53422;DHT22;39319;52.944;5.928;2022-12-10T00:21:11;1.00;99.90
53422;DHT22;39319;52.944;5.928;2022-12-10T00:23:38;1.00;99.90
53422;DHT22;39319;52.944;5.928;2022-12-10T00:26:06;1.00;99.90
53422;DHT22;39319;52.944;5.928;2022-12-10T00:28:32;1.00;99.90
53422;DHT22;39319;52.944;5.928;2022-12-10T00:31:22;1.00;99.90
53422;DHT22;39319;52.944;5.928;2022-12-10T00:33:52;1.00;99.90
53422;DHT22;39319;52.944;5.928;2022-12-10T00:36:21;1.40;99.90
53422;DHT22;39319;52.944;5.928;2022-12-10T00:38:49;1.00;99.90
53422;DHT22;39319;52.944;5.928;2022-12-10T00:41:16;1.00;99.90
53422;DHT22;39319;52.944;5.928;2022-12-10T00:43:42;1.00;99.90
53422;DHT22;39319;52.944;5.928;2022-12-10T00:46:08;1.00;99.90
53422;DHT22;39319;52.944;5.928;2022-12-10T00:48:34;1.00;99.90
53422;DHT22;39319;52.944;5.928;2022-12-10T00:51:06;1.00;99.90
53422;DHT22;39319;52.944;5.928;2022-12-10T00:53:33;1.00;99.90
53422;DHT22;39319;52.944;5.928;2022-12-10T00:56:03;1.00;99.90
53422;DHT22;39319;52.944;5.928;2022-12-10T00:58:31;1.00;99.90
53422;DHT22;39319;52.944;5.928;2022-12-10T01:01:26;1.00;99.90
53422;DHT22;39319;52.944;5.928;2022-12-10T01:03:56;1.00;99.90
53422;DHT22;39319;52.944;5.928;2022-12-10T01:06:28;1.00;99.90
53422;DHT22;39319;52.944;5.928;2022-12-10T01:08:57;1.00;99.90
53422;DHT22;39319;52.944;5.928;2022-12-10T01:11:29;1.30;99.90
53422;DHT22;39319;52.944;5.928;2022-12-10T01:13:55;1.50;99.90
53422;DHT22;39319;52.944;5.928;2022-12-10T01:16:22;1.00;99.90
53422;DHT22;39319;52.944;5.928;2022-12-10T01:18:48;1.00;99.90
53422;DHT22;39319;52.944;5.928;2022-12-10T01:21:17;0.90;99.90
53422;DHT22;39319;52.944;5.928;2022-12-10T01:23:45;0.90;99.90
53422;DHT22;39319;52.944;5.928;2022-12-10T01:26:16;0.90;99.90
53422;DHT22;39319;52.944;5.928;2022-12-10T01:28:43;0.80;99.90
53422;DHT22;39319;52.944;5.928;2022-12-10T01:31:12;0.80;99.90
53422;DHT22;39319;52.944;5.928;2022-12-10T01:33:38;0.80;99.90
53422;DHT22;39319;52.944;5.928;2022-12-10T01:36:10;0.80;99.90
53422;DHT22;39319;52.944;5.928;2022-12-10T01:38:37;0.70;99.90
53422;DHT22;39319;52.944;5.928;2022-12-10T01:41:03;0.70;99.90
53422;DHT22;39319;52.944;5.928;2022-12-10T01:46:17;0.60;99.90
53422;DHT22;39319;52.944;5.928;2022-12-10T01:48:42;0.60;99.90
53422;DHT22;39319;52.944;5.928;2022-12-10T01:51:09;0.60;99.90
53422;DHT22;39319;52.944;5.928;2022-12-10T01:53:35;0.60;99.90
53422;DHT22;39319;52.944;5.928;2022-12-10T01:56:01;0.50;99.90
53422;DHT22;39319;52.944;5.928;2022-12-10T01:58:30;0.60;99.90
53422;DHT22;39319;52.944;5.928;2022-12-10T02:01:22;0.80;99.90
53422;DHT22;39319;52.944;5.928;2022-12-10T02:06:44;0.50;99.90
53422;DHT22;39319;52.944;5.928;2022-12-10T02:09:21;0.50;99.90
53422;DHT22;39319;52.944;5.928;2022-12-10T02:12:09;0.50;99.90
53422;DHT22;39319;52.944;5.928;2022-12-10T02:15:15;0.50;99.90
53422;DHT22;39319;52.944;5.928;2022-12-10T02:17:45;0.40;99.90
53422;DHT22;39319;52.944;5.928;2022-12-10T02:23:03;0.40;99.90
53422;DHT22;39319;52.944;5.928;2022-12-10T02:25:56;0.60;99.90
53422;DHT22;39319;52.944;5.928;2022-12-10T02:30:58;0.40;99.90
53422;DHT22;39319;52.944;5.928;2022-12-10T02:33:26;0.40;99.90
53422;DHT22;39319;52.944;5.928;2022-12-10T02:35:53;0.30;99.90
53422;DHT22;39319;52.944;5.928;2022-12-10T02:38:34;0.30;99.90
53422;DHT22;39319;52.944;5.928;2022-12-10T02:41:05;0.30;99.90
53422;DHT22;39319;52.944;5.928;2022-12-10T02:43:33;0.30;99.90
53422;DHT22;39319;52.944;5.928;2022-12-10T02:46:00;0.30;99.90
53422;DHT22;39319;52.944;5.928;2022-12-10T02:48:28;0.30;99.90
53422;DHT22;39319;52.944;5.928;2022-12-10T02:50:55;0.30;99.90
53422;DHT22;39319;52.944;5.928;2022-12-10T02:53:21;0.30;99.90
53422;DHT22;39319;52.944;5.928;2022-12-10T02:56:08;0.30;99.90
53422;DHT22;39319;52.944;5.928;2022-12-10T03:07:02;0.40;99.90
53422;DHT22;39319;52.944;5.928;2022-12-10T03:09:36;0.40;99.90
53422;DHT22;39319;52.944;5.928;2022-12-10T03:12:10;0.40;99.90
53422;DHT22;39319;52.944;5.928;2022-12-10T03:14:40;0.40;99.90
53422;DHT22;39319;52.944;5.928;2022-12-10T03:17:06;0.40;99.90
53422;DHT22;39319;52.944;5.928;2022-12-10T03:19:41;0.50;99.90
53422;DHT22;39319;52.944;5.928;2022-12-10T03:22:09;0.50;99.90
53422;DHT22;39319;52.944;5.928;2022-12-10T03:24:37;0.50;99.90
53422;DHT22;39319;52.944;5.928;2022-12-10T03:27:05;1.30;99.90
53422;DHT22;39319;52.944;5.928;2022-12-10T03:29:40;0.50;99.90
53422;DHT22;39319;52.944;5.928;2022-12-10T03:32:07;0.60;99.90
53422;DHT22;39319;52.944;5.928;2022-12-10T03:34:33;0.60;99.90
53422;DHT22;39319;52.944;5.928;2022-12-10T03:37:01;0.60;99.90
53422;DHT22;39319;52.944;5.928;2022-12-10T03:39:27;0.60;99.90
53422;DHT22;39319;52.944;5.928;2022-12-10T03:41:53;0.60;99.90
53422;DHT22;39319;52.944;5.928;2022-12-10T03:44:33;0.70;99.90
53422;DHT22;39319;52.944;5.928;2022-12-10T03:47:00;0.70;99.90
53422;DHT22;39319;52.944;5.928;2022-12-10T03:49:27;1.00;99.90
53422;DHT22;39319;52.944;5.928;2022-12-10T03:51:53;0.70;99.90
53422;DHT22;39319;52.944;5.928;2022-12-10T03:54:19;0.70;99.90
53422;DHT22;39319;52.944;5.928;2022-12-10T03:56:47;0.80;99.90
53422;DHT22;39319;52.944;5.928;2022-12-10T03:59:13;0.80;99.90
53422;DHT22;39319;52.944;5.928;2022-12-10T04:01:40;0.80;99.90
53422;DHT22;39319;52.944;5.928;2022-12-10T04:04:06;1.00;99.90
53422;DHT22;39319;52.944;5.928;2022-12-10T04:06:32;1.00;99.90
53422;DHT22;39319;52.944;5.928;2022-12-10T04:08:57;0.80;99.90
53422;DHT22;39319;52.944;5.928;2022-12-10T04:11:23;0.90;99.90
53422;DHT22;39319;52.944;5.928;2022-12-10T04:13:50;1.00;99.90
53422;DHT22;39319;52.944;5.928;2022-12-10T04:16:34;0.90;99.90
53422;DHT22;39319;52.944;5.928;2022-12-10T04:19:12;1.00;99.90
53422;DHT22;39319;52.944;5.928;2022-12-10T04:21:39;1.00;99.90
53422;DHT22;39319;52.944;5.928;2022-12-10T04:24:25;1.10;99.90
53422;DHT22;39319;52.944;5.928;2022-12-10T04:27:22;1.10;99.90
53422;DHT22;39319;52.944;5.928;2022-12-10T04:29:49;1.10;99.90
53422;DHT22;39319;52.944;5.928;2022-12-10T04:32:16;1.10;99.90
53422;DHT22;39319;52.944;5.928;2022-12-10T04:34:41;1.20;99.90
53422;DHT22;39319;52.944;5.928;2022-12-10T04:37:07;1.20;99.90
53422;DHT22;39319;52.944;5.928;2022-12-10T04:39:34;1.20;99.90
53422;DHT22;39319;52.944;5.928;2022-12-10T04:42:00;1.20;99.90
53422;DHT22;39319;52.944;5.928;2022-12-10T04:44:26;1.20;99.90
53422;DHT22;39319;52.944;5.928;2022-12-10T04:46:52;1.20;99.90
53422;DHT22;39319;52.944;5.928;2022-12-10T04:49:18;1.20;99.90
53422;DHT22;39319;52.944;5.928;2022-12-10T04:51:44;1.30;99.90
53422;DHT22;39319;52.944;5.928;2022-12-10T04:54:10;1.30;99.90
53422;DHT22;39319;52.944;5.928;2022-12-10T04:56:36;1.30;99.90
53422;DHT22;39319;52.944;5.928;2022-12-10T04:59:05;1.30;99.90
53422;DHT22;39319;52.944;5.928;2022-12-10T05:01:31;1.50;99.90
53422;DHT22;39319;52.944;5.928;2022-12-10T05:04:01;1.70;99.90
53422;DHT22;39319;52.944;5.928;2022-12-10T05:06:28;1.40;99.90
53422;DHT22;39319;52.944;5.928;2022-12-10T05:08:54;1.30;99.90
53422;DHT22;39319;52.944;5.928;2022-12-10T05:11:21;1.40;99.90
53422;DHT22;39319;52.944;5.928;2022-12-10T05:13:50;1.40;99.90
53422;DHT22;39319;52.944;5.928;2022-12-10T05:16:18;1.40;99.90
53422;DHT22;39319;52.944;5.928;2022-12-10T05:18:44;1.40;99.90
53422;DHT22;39319;52.944;5.928;2022-12-10T05:21:12;1.40;99.90
53422;DHT22;39319;52.944;5.928;2022-12-10T05:23:43;1.40;99.90
53422;DHT22;39319;52.944;5.928;2022-12-10T05:26:12;1.40;99.90
53422;DHT22;39319;52.944;5.928;2022-12-10T05:28:44;1.40;99.90
53422;DHT22;39319;52.944;5.928;2022-12-10T05:31:36;1.40;99.90
53422;DHT22;39319;52.944;5.928;2022-12-10T05:34:02;1.40;99.90
53422;DHT22;39319;52.944;5.928;2022-12-10T05:36:30;1.50;99.90
53422;DHT22;39319;52.944;5.928;2022-12-10T05:38:56;1.50;99.90
53422;DHT22;39319;52.944;5.928;2022-12-10T05:41:24;1.80;99.90
53422;DHT22;39319;52.944;5.928;2022-12-10T05:43:52;1.40;99.90
53422;DHT22;39319;52.944;5.928;2022-12-10T05:46:20;1.40;99.90
53422;DHT22;39319;52.944;5.928;2022-12-10T05:48:48;1.50;99.90
53422;DHT22;39319;52.944;5.928;2022-12-10T05:51:16;1.40;99.90
53422;DHT22;39319;52.944;5.928;2022-12-10T05:53:42;1.40;99.90
53422;DHT22;39319;52.944;5.928;2022-12-10T05:56:13;1.40;99.90
53422;DHT22;39319;52.944;5.928;2022-12-10T05:58:41;1.40;99.90
53422;DHT22;39319;52.944;5.928;2022-12-10T06:01:09;1.80;99.90
53422;DHT22;39319;52.944;5.928;2022-12-10T06:03:35;1.40;99.90
53422;DHT22;39319;52.944;5.928;2022-12-10T06:06:01;1.90;99.90
53422;DHT22;39319;52.944;5.928;2022-12-10T06:08:27;1.40;99.90
53422;DHT22;39319;52.944;5.928;2022-12-10T06:10:55;1.40;99.90
53422;DHT22;39319;52.944;5.928;2022-12-10T06:13:23;1.40;99.90
53422;DHT22;39319;52.944;5.928;2022-12-10T06:15:49;1.40;99.90
53422;DHT22;39319;52.944;5.928;2022-12-10T06:18:15;1.40;99.90
53422;DHT22;39319;52.944;5.928;2022-12-10T06:20:41;1.40;99.90
53422;DHT22;39319;52.944;5.928;2022-12-10T06:23:06;1.40;99.90
53422;DHT22;39319;52.944;5.928;2022-12-10T06:25:33;1.60;99.90
53422;DHT22;39319;52.944;5.928;2022-12-10T06:27:58;1.40;99.90
53422;DHT22;39319;52.944;5.928;2022-12-10T06:30:24;1.40;99.90
53422;DHT22;39319;52.944;5.928;2022-12-10T06:32:52;2.00;99.90
53422;DHT22;39319;52.944;5.928;2022-12-10T06:35:18;1.50;99.90
53422;DHT22;39319;52.944;5.928;2022-12-10T06:37:44;1.40;99.90
53422;DHT22;39319;52.944;5.928;2022-12-10T06:40:11;1.60;99.90
53422;DHT22;39319;52.944;5.928;2022-12-10T06:42:37;1.40;99.90
53422;DHT22;39319;52.944;5.928;2022-12-10T06:45:03;1.40;99.90
53422;DHT22;39319;52.944;5.928;2022-12-10T06:47:29;1.40;99.90
53422;DHT22;39319;52.944;5.928;2022-12-10T06:49:55;1.40;99.90
53422;DHT22;39319;52.944;5.928;2022-12-10T06:52:21;1.40;99.90
53422;DHT22;39319;52.944;5.928;2022-12-10T06:54:47;1.40;99.90
53422;DHT22;39319;52.944;5.928;2022-12-10T06:57:13;1.40;99.90
53422;DHT22;39319;52.944;5.928;2022-12-10T06:59:39;1.40;99.90
53422;DHT22;39319;52.944;5.928;2022-12-10T07:02:05;1.40;99.90
53422;DHT22;39319;52.944;5.928;2022-12-10T07:04:30;1.40;99.90
53422;DHT22;39319;52.944;5.928;2022-12-10T07:06:56;1.40;99.90
53422;DHT22;39319;52.944;5.928;2022-12-10T07:09:22;1.40;99.90
53422;DHT22;39319;52.944;5.928;2022-12-10T07:11:48;1.40;99.90
53422;DHT22;39319;52.944;5.928;2022-12-10T07:14:15;1.70;99.90
53422;DHT22;39319;52.944;5.928;2022-12-10T07:16:41;1.40;99.90
53422;DHT22;39319;52.944;5.928;2022-12-10T07:19:09;1.40;99.90
53422;DHT22;39319;52.944;5.928;2022-12-10T07:21:36;1.40;99.90
53422;DHT22;39319;52.944;5.928;2022-12-10T07:24:05;1.40;99.90
53422;DHT22;39319;52.944;5.928;2022-12-10T07:26:34;1.30;99.90
53422;DHT22;39319;52.944;5.928;2022-12-10T07:29:01;1.30;99.90
53422;DHT22;39319;52.944;5.928;2022-12-10T07:31:27;1.30;99.90
53422;DHT22;39319;52.944;5.928;2022-12-10T07:33:54;1.30;99.90
53422;DHT22;39319;52.944;5.928;2022-12-10T07:36:22;1.30;99.90
53422;DHT22;39319;52.944;5.928;2022-12-10T07:38:49;1.30;99.90
53422;DHT22;39319;52.944;5.928;2022-12-10T07:41:16;1.30;99.90
53422;DHT22;39319;52.944;5.928;2022-12-10T07:43:43;1.30;99.90
53422;DHT22;39319;52.944;5.928;2022-12-10T07:46:18;1.30;99.90
53422;DHT22;39319;52.944;5.928;2022-12-10T07:48:46;1.30;99.90
53422;DHT22;39319;52.944;5.928;2022-12-10T07:51:12;1.30;99.90
53422;DHT22;39319;52.944;5.928;2022-12-10T07:53:38;1.30;99.90
53422;DHT22;39319;52.944;5.928;2022-12-10T07:56:05;1.30;99.90
53422;DHT22;39319;52.944;5.928;2022-12-10T07:58:31;1.30;99.90
53422;DHT22;39319;52.944;5.928;2022-12-10T08:00:56;1.30;99.90
53422;DHT22;39319;52.944;5.928;2022-12-10T08:03:22;1.40;99.90
53422;DHT22;39319;52.944;5.928;2022-12-10T08:06:11;1.20;99.90
53422;DHT22;39319;52.944;5.928;2022-12-10T08:08:36;1.20;99.90
53422;DHT22;39319;52.944;5.928;2022-12-10T08:11:04;1.30;99.90
53422;DHT22;39319;52.944;5.928;2022-12-10T08:13:31;1.30;99.90
53422;DHT22;39319;52.944;5.928;2022-12-10T08:16:17;1.30;99.90
53422;DHT22;39319;52.944;5.928;2022-12-10T08:18:44;1.30;99.90
53422;DHT22;39319;52.944;5.928;2022-12-10T08:21:21;1.30;99.90
53422;DHT22;39319;52.944;5.928;2022-12-10T08:23:48;1.30;99.90
53422;DHT22;39319;52.944;5.928;2022-12-10T08:26:23;1.30;99.90
53422;DHT22;39319;52.944;5.928;2022-12-10T08:28:50;1.20;99.90
53422;DHT22;39319;52.944;5.928;2022-12-10T08:52:09;1.30;99.90
53422;DHT22;39319;52.944;5.928;2022-12-10T08:54:36;1.30;99.90
53422;DHT22;39319;52.944;5.928;2022-12-10T08:57:01;1.50;99.90
53422;DHT22;39319;52.944;5.928;2022-12-10T08:59:27;1.30;99.90
53422;DHT22;39319;52.944;5.928;2022-12-10T09:01:57;1.30;99.90
53422;DHT22;39319;52.944;5.928;2022-12-10T09:04:23;1.40;99.90
53422;DHT22;39319;52.944;5.928;2022-12-10T09:06:48;1.30;99.90
53422;DHT22;39319;52.944;5.928;2022-12-10T09:09:15;1.30;99.90
53422;DHT22;39319;52.944;5.928;2022-12-10T09:11:41;1.30;99.90
53422;DHT22;39319;52.944;5.928;2022-12-10T09:14:07;1.30;99.90
53422;DHT22;39319;52.944;5.928;2022-12-10T09:16:35;1.40;99.90
53422;DHT22;39319;52.944;5.928;2022-12-10T09:19:01;1.30;99.90
53422;DHT22;39319;52.944;5.928;2022-12-10T09:21:27;1.30;99.90
53422;DHT22;39319;52.944;5.928;2022-12-10T09:23:53;1.80;99.90
53422;DHT22;39319;52.944;5.928;2022-12-10T09:26:20;1.80;99.90
53422;DHT22;39319;52.944;5.928;2022-12-10T09:28:46;1.40;99.90
53422;DHT22;39319;52.944;5.928;2022-12-10T09:31:14;1.40;99.90
53422;DHT22;39319;52.944;5.928;2022-12-10T09:33:40;1.50;99.90
53422;DHT22;39319;52.944;5.928;2022-12-10T09:36:08;1.60;99.90
53422;DHT22;39319;52.944;5.928;2022-12-10T09:38:35;1.60;99.90
53422;DHT22;39319;52.944;5.928;2022-12-10T09:41:14;1.60;99.90
53422;DHT22;39319;52.944;5.928;2022-12-10T09:51:40;1.50;99.90
53422;DHT22;39319;52.944;5.928;2022-12-10T09:56:58;1.60;99.90
53422;DHT22;39319;52.944;5.928;2022-12-10T10:04:37;1.60;99.90
53422;DHT22;39319;52.944;5.928;2022-12-10T10:07:04;1.60;99.90
53422;DHT22;39319;52.944;5.928;2022-12-10T10:09:32;1.60;99.90
53422;DHT22;39319;52.944;5.928;2022-12-10T10:12:02;1.60;99.90
53422;DHT22;39319;52.944;5.928;2022-12-10T10:14:28;1.60;99.90
53422;DHT22;39319;52.944;5.928;2022-12-10T10:17:03;1.60;99.90
53422;DHT22;39319;52.944;5.928;2022-12-10T10:19:33;1.60;99.90
53422;DHT22;39319;52.944;5.928;2022-12-10T10:22:01;1.70;99.90
53422;DHT22;39319;52.944;5.928;2022-12-10T10:24:35;1.60;99.90
53422;DHT22;39319;52.944;5.928;2022-12-10T10:29:45;1.70;99.90
53422;DHT22;39319;52.944;5.928;2022-12-10T10:35:04;1.70;99.90
53422;DHT22;39319;52.944;5.928;2022-12-10T10:37:42;1.60;99.90
53422;DHT22;39319;52.944;5.928;2022-12-10T10:40:30;1.70;99.90
53422;DHT22;39319;52.944;5.928;2022-12-10T10:42:58;1.70;99.90
53422;DHT22;39319;52.944;5.928;2022-12-10T10:45:38;1.90;99.90
53422;DHT22;39319;52.944;5.928;2022-12-10T10:48:19;1.60;99.90
53422;DHT22;39319;52.944;5.928;2022-12-10T10:56:15;1.70;99.90
53422;DHT22;39319;52.944;5.928;2022-12-10T11:01:18;1.70;99.90
53422;DHT22;39319;52.944;5.928;2022-12-10T11:03:49;1.70;99.90
53422;DHT22;39319;52.944;5.928;2022-12-10T11:06:18;1.70;99.90
53422;DHT22;39319;52.944;5.928;2022-12-10T11:08:45;1.60;99.90
53422;DHT22;39319;52.944;5.928;2022-12-10T11:11:31;1.70;99.90
53422;DHT22;39319;52.944;5.928;2022-12-10T11:16:49;1.60;99.90
53422;DHT22;39319;52.944;5.928;2022-12-10T11:19:23;1.60;99.90
53422;DHT22;39319;52.944;5.928;2022-12-10T11:21:49;1.60;99.90
53422;DHT22;39319;52.944;5.928;2022-12-10T11:24:18;1.60;99.90
53422;DHT22;39319;52.944;5.928;2022-12-10T11:27:03;1.60;99.90
53422;DHT22;39319;52.944;5.928;2022-12-10T11:51:28;2.50;99.90
53422;DHT22;39319;52.944;5.928;2022-12-10T11:56:49;2.30;99.90
53422;DHT22;39319;52.944;5.928;2022-12-10T11:59:31;2.30;99.90
53422;DHT22;39319;52.944;5.928;2022-12-10T12:07:33;2.30;99.90
53422;DHT22;39319;52.944;5.928;2022-12-10T12:10:13;2.30;99.90
53422;DHT22;39319;52.944;5.928;2022-12-10T12:15:25;2.40;99.90
53422;DHT22;39319;52.944;5.928;2022-12-10T12:17:58;2.30;99.90
53422;DHT22;39319;52.944;5.928;2022-12-10T12:25:49;2.40;99.90
53422;DHT22;39319;52.944;5.928;2022-12-10T12:28:37;2.30;99.90
53422;DHT22;39319;52.944;5.928;2022-12-10T12:31:34;2.40;99.90
53422;DHT22;39319;52.944;5.928;2022-12-10T12:34:37;2.40;99.90
53422;DHT22;39319;52.944;5.928;2022-12-10T12:37:06;2.40;99.90
53422;DHT22;39319;52.944;5.928;2022-12-10T12:39:49;2.70;99.90
53422;DHT22;39319;52.944;5.928;2022-12-10T12:42:35;2.70;99.90
53422;DHT22;39319;52.944;5.928;2022-12-10T12:45:12;2.30;99.90
53422;DHT22;39319;52.944;5.928;2022-12-10T12:53:14;2.40;99.90
53422;DHT22;39319;52.944;5.928;2022-12-10T13:00:54;2.40;99.90
53422;DHT22;39319;52.944;5.928;2022-12-10T13:03:29;2.60;99.90
53422;DHT22;39319;52.944;5.928;2022-12-10T13:06:12;2.40;99.90
53422;DHT22;39319;52.944;5.928;2022-12-10T13:09:24;2.40;99.90
53422;DHT22;39319;52.944;5.928;2022-12-10T13:11:34;2.30;99.90
53422;DHT22;39319;52.944;5.928;2022-12-10T13:43:35;2.30;99.90
53422;DHT22;39319;52.944;5.928;2022-12-10T13:46:31;2.30;99.90
53422;DHT22;39319;52.944;5.928;2022-12-10T13:49:05;2.30;99.90
53422;DHT22;39319;52.944;5.928;2022-12-10T13:54:26;2.30;99.90
53422;DHT22;39319;52.944;5.928;2022-12-10T14:00:02;2.30;99.90
53422;DHT22;39319;52.944;5.928;2022-12-10T14:02:46;2.30;99.90
53422;DHT22;39319;52.944;5.928;2022-12-10T14:08:18;2.30;99.90
53422;DHT22;39319;52.944;5.928;2022-12-10T14:10:47;2.30;99.90
53422;DHT22;39319;52.944;5.928;2022-12-10T14:13:15;2.30;99.90
53422;DHT22;39319;52.944;5.928;2022-12-10T14:15:51;2.40;99.90
53422;DHT22;39319;52.944;5.928;2022-12-10T14:18:18;2.30;99.90
53422;DHT22;39319;52.944;5.928;2022-12-10T14:20:47;2.30;99.90
53422;DHT22;39319;52.944;5.928;2022-12-10T14:23:26;2.30;99.90
53422;DHT22;39319;52.944;5.928;2022-12-10T14:26:13;2.30;99.90
53422;DHT22;39319;52.944;5.928;2022-12-10T14:28:59;2.40;99.90
53422;DHT22;39319;52.944;5.928;2022-12-10T14:31:33;2.30;99.90
53422;DHT22;39319;52.944;5.928;2022-12-10T14:34:03;2.30;99.90
53422;DHT22;39319;52.944;5.928;2022-12-10T14:36:50;2.30;99.90
53422;DHT22;39319;52.944;5.928;2022-12-10T14:39:29;2.30;99.90
53422;DHT22;39319;52.944;5.928;2022-12-10T14:42:01;2.70;99.90
53422;DHT22;39319;52.944;5.928;2022-12-10T14:44:28;2.30;99.90
53422;DHT22;39319;52.944;5.928;2022-12-10T14:47:18;2.30;99.90
53422;DHT22;39319;52.944;5.928;2022-12-10T14:49:50;2.40;99.90
53422;DHT22;39319;52.944;5.928;2022-12-10T14:52:22;2.40;99.90
53422;DHT22;39319;52.944;5.928;2022-12-10T14:54:48;2.40;99.90
53422;DHT22;39319;52.944;5.928;2022-12-10T14:57:24;2.40;99.90
53422;DHT22;39319;52.944;5.928;2022-12-10T15:00:06;2.40;99.90
53422;DHT22;39319;52.944;5.928;2022-12-10T15:02:39;2.40;99.90
53422;DHT22;39319;52.944;5.928;2022-12-10T15:05:15;2.30;99.90
53422;DHT22;39319;52.944;5.928;2022-12-10T15:07:48;2.40;99.90
53422;DHT22;39319;52.944;5.928;2022-12-10T15:10:43;2.40;99.90
53422;DHT22;39319;52.944;5.928;2022-12-10T15:13:13;2.40;99.90
53422;DHT22;39319;52.944;5.928;2022-12-10T15:15:42;2.40;99.90
53422;DHT22;39319;52.944;5.928;2022-12-10T15:18:16;2.40;99.90
53422;DHT22;39319;52.944;5.928;2022-12-10T15:23:32;2.40;99.90
53422;DHT22;39319;52.944;5.928;2022-12-10T15:26:10;2.40;99.90
53422;DHT22;39319;52.944;5.928;2022-12-10T15:28:41;2.40;99.90
53422;DHT22;39319;52.944;5.928;2022-12-10T15:31:22;2.50;99.90
53422;DHT22;39319;52.944;5.928;2022-12-10T15:33:55;2.30;99.90
53422;DHT22;39319;52.944;5.928;2022-12-10T15:38:57;2.40;99.90
53422;DHT22;39319;52.944;5.928;2022-12-10T15:41:46;2.70;99.90
53422;DHT22;39319;52.944;5.928;2022-12-10T15:44:40;2.30;99.90
53422;DHT22;39319;52.944;5.928;2022-12-10T15:47:22;2.30;99.90
53422;DHT22;39319;52.944;5.928;2022-12-10T15:49:50;2.40;99.90
53422;DHT22;39319;52.944;5.928;2022-12-10T15:52:19;2.40;99.90
53422;DHT22;39319;52.944;5.928;2022-12-10T15:54:47;2.40;99.90
53422;DHT22;39319;52.944;5.928;2022-12-10T15:57:18;2.40;99.90
53422;DHT22;39319;52.944;5.928;2022-12-10T15:59:45;2.40;99.90
53422;DHT22;39319;52.944;5.928;2022-12-10T16:02:35;2.40;99.90
53422;DHT22;39319;52.944;5.928;2022-12-10T16:07:35;2.40;99.90
53422;DHT22;39319;52.944;5.928;2022-12-10T16:10:01;2.40;99.90
53422;DHT22;39319;52.944;5.928;2022-12-10T16:12:27;2.30;99.90
53422;DHT22;39319;52.944;5.928;2022-12-10T16:14:54;2.30;99.90
53422;DHT22;39319;52.944;5.928;2022-12-10T16:17:29;2.30;99.90
53422;DHT22;39319;52.944;5.928;2022-12-10T16:20:26;2.40;99.90
53422;DHT22;39319;52.944;5.928;2022-12-10T16:22:57;2.40;99.90
53422;DHT22;39319;52.944;5.928;2022-12-10T16:25:25;2.40;99.90
53422;DHT22;39319;52.944;5.928;2022-12-10T16:27:52;2.40;99.90
53422;DHT22;39319;52.944;5.928;2022-12-10T16:30:28;2.40;99.90
53422;DHT22;39319;52.944;5.928;2022-12-10T16:32:55;2.40;99.90
53422;DHT22;39319;52.944;5.928;2022-12-10T16:35:21;2.40;99.90
53422;DHT22;39319;52.944;5.928;2022-12-10T16:37:48;2.30;99.90
53422;DHT22;39319;52.944;5.928;2022-12-10T16:40:17;2.30;99.90
53422;DHT22;39319;52.944;5.928;2022-12-10T16:42:43;2.30;99.90
53422;DHT22;39319;52.944;5.928;2022-12-10T16:45:55;2.30;99.90
53422;DHT22;39319;52.944;5.928;2022-12-10T16:48:03;2.30;99.90
53422;DHT22;39319;52.944;5.928;2022-12-10T16:50:29;2.30;99.90
53422;DHT22;39319;52.944;5.928;2022-12-10T16:52:56;2.30;99.90
53422;DHT22;39319;52.944;5.928;2022-12-10T16:55:24;2.30;99.90
53422;DHT22;39319;52.944;5.928;2022-12-10T16:57:51;2.30;99.90
53422;DHT22;39319;52.944;5.928;2022-12-10T17:00:23;2.40;99.90
53422;DHT22;39319;52.944;5.928;2022-12-10T17:02:50;2.30;99.90
53422;DHT22;39319;52.944;5.928;2022-12-10T17:05:24;2.30;99.90
53422;DHT22;39319;52.944;5.928;2022-12-10T17:07:59;2.30;99.90
53422;DHT22;39319;52.944;5.928;2022-12-10T17:10:25;2.30;99.90
53422;DHT22;39319;52.944;5.928;2022-12-10T17:13:14;2.30;99.90
53422;DHT22;39319;52.944;5.928;2022-12-10T17:15:42;2.30;99.90
53422;DHT22;39319;52.944;5.928;2022-12-10T17:18:16;2.30;99.90
53422;DHT22;39319;52.944;5.928;2022-12-10T17:20:44;2.20;99.90
53422;DHT22;39319;52.944;5.928;2022-12-10T17:23:10;2.20;99.90
53422;DHT22;39319;52.944;5.928;2022-12-10T17:25:36;2.20;99.90
53422;DHT22;39319;52.944;5.928;2022-12-10T17:28:02;2.20;99.90
53422;DHT22;39319;52.944;5.928;2022-12-10T17:30:28;2.20;99.90
53422;DHT22;39319;52.944;5.928;2022-12-10T17:32:54;2.20;99.90
53422;DHT22;39319;52.944;5.928;2022-12-10T17:35:21;2.20;99.90
53422;DHT22;39319;52.944;5.928;2022-12-10T17:37:47;2.20;99.90
53422;DHT22;39319;52.944;5.928;2022-12-10T17:40:20;2.40;99.90
53422;DHT22;39319;52.944;5.928;2022-12-10T17:42:46;2.20;99.90
53422;DHT22;39319;52.944;5.928;2022-12-10T17:45:17;2.20;99.90
53422;DHT22;39319;52.944;5.928;2022-12-10T17:47:43;2.20;99.90
53422;DHT22;39319;52.944;5.928;2022-12-10T17:50:27;2.20;99.90
53422;DHT22;39319;52.944;5.928;2022-12-10T17:52:55;2.20;99.90
53422;DHT22;39319;52.944;5.928;2022-12-10T17:55:21;2.20;99.90
53422;DHT22;39319;52.944;5.928;2022-12-10T17:57:46;2.50;99.90
53422;DHT22;39319;52.944;5.928;2022-12-10T18:00:18;2.10;99.90
53422;DHT22;39319;52.944;5.928;2022-12-10T18:02:44;2.10;99.90
53422;DHT22;39319;52.944;5.928;2022-12-10T18:05:12;2.10;99.90
53422;DHT22;39319;52.944;5.928;2022-12-10T18:07:38;2.10;99.90
53422;DHT22;39319;52.944;5.928;2022-12-10T18:10:07;2.10;99.90
53422;DHT22;39319;52.944;5.928;2022-12-10T18:12:37;2.00;99.90
53422;DHT22;39319;52.944;5.928;2022-12-10T18:15:04;2.00;99.90
53422;DHT22;39319;52.944;5.928;2022-12-10T18:17:31;2.00;99.90
53422;DHT22;39319;52.944;5.928;2022-12-10T18:19:59;2.10;99.90
53422;DHT22;39319;52.944;5.928;2022-12-10T18:22:25;2.00;99.90
53422;DHT22;39319;52.944;5.928;2022-12-10T18:24:50;2.00;99.90
53422;DHT22;39319;52.944;5.928;2022-12-10T18:27:17;2.00;99.90
53422;DHT22;39319;52.944;5.928;2022-12-10T18:29:43;2.00;99.90
53422;DHT22;39319;52.944;5.928;2022-12-10T18:32:12;2.00;99.90
53422;DHT22;39319;52.944;5.928;2022-12-10T18:34:38;2.40;99.90
53422;DHT22;39319;52.944;5.928;2022-12-10T18:37:04;2.10;99.90
53422;DHT22;39319;52.944;5.928;2022-12-10T18:39:30;2.00;99.90
53422;DHT22;39319;52.944;5.928;2022-12-10T18:41:59;2.50;99.90
53422;DHT22;39319;52.944;5.928;2022-12-10T18:44:26;2.00;99.90
53422;DHT22;39319;52.944;5.928;2022-12-10T18:46:54;2.00;99.90
53422;DHT22;39319;52.944;5.928;2022-12-10T18:49:20;2.20;99.90
53422;DHT22;39319;52.944;5.928;2022-12-10T18:51:47;2.00;99.90
53422;DHT22;39319;52.944;5.928;2022-12-10T18:54:13;2.50;99.90